createdAt,value
2023-09-20T00:02:15.993Z,1.50
2023-09-20T00:04:45.201Z,1.50
2023-09-20T00:07:13.788Z,1.20
2023-09-20T00:09:42.857Z,1.60
2023-09-20T00:12:11.324Z,1.42
2023-09-20T00:14:39.587Z,1.33
2023-09-20T00:17:07.999Z,1.62
2023-09-20T00:19:37.176Z,1.33
2023-09-20T00:22:05.378Z,1.75
2023-09-20T00:24:36.104Z,1.48
2023-09-20T00:27:04.185Z,1.83
2023-09-20T00:29:32.176Z,1.48
2023-09-20T00:32:00.193Z,1.60
2023-09-20T00:34:29.014Z,1.85
2023-09-20T00:36:56.957Z,1.90
2023-09-20T00:39:25.607Z,1.92
2023-09-20T00:41:53.652Z,1.23
2023-09-20T00:44:21.686Z,1.45
2023-09-20T00:46:49.673Z,1.80
2023-09-20T00:49:17.655Z,1.70
2023-09-20T00:51:49.694Z,1.67
2023-09-20T00:54:18.131Z,1.48
2023-09-20T00:56:46.659Z,1.70
2023-09-20T00:59:14.752Z,1.60
2023-09-20T01:01:43.799Z,1.37
2023-09-20T01:04:12.860Z,1.40
2023-09-20T01:06:43.679Z,1.52
2023-09-20T01:09:12.357Z,1.87
2023-09-20T01:11:40.389Z,1.52
2023-09-20T01:14:08.386Z,1.60
2023-09-20T01:16:36.417Z,1.40
2023-09-20T01:19:07.297Z,1.70
2023-09-20T01:21:49.180Z,1.55
2023-09-20T01:24:19.126Z,1.42
2023-09-20T01:26:50.318Z,1.60
2023-09-20T01:29:18.337Z,1.23
2023-09-20T01:31:46.683Z,1.50
2023-09-20T01:34:14.620Z,1.80
2023-09-20T01:36:43.319Z,1.45
2023-09-20T01:39:11.706Z,1.48
2023-09-20T01:41:39.756Z,1.58
2023-09-20T01:44:09.487Z,1.60
2023-09-20T01:46:39.194Z,1.70
2023-09-20T01:49:08.064Z,1.52
2023-09-20T01:51:36.388Z,1.60
2023-09-20T01:54:06.237Z,1.40
2023-09-20T01:56:34.241Z,1.67
2023-09-20T01:59:02.322Z,1.60
2023-09-20T02:01:30.349Z,1.77
2023-09-20T02:03:58.494Z,1.77
2023-09-20T02:06:26.567Z,1.75
2023-09-20T02:08:55.849Z,1.60
2023-09-20T02:11:24.154Z,1.58
2023-09-20T02:13:52.224Z,1.45
2023-09-20T02:16:20.212Z,1.77
2023-09-20T02:18:50.656Z,1.70
2023-09-20T02:21:18.676Z,1.95
2023-09-20T02:23:47.208Z,1.37
2023-09-20T02:26:15.329Z,1.60
2023-09-20T02:28:43.509Z,1.40
2023-09-20T02:31:11.807Z,1.20
2023-09-20T02:33:41.000Z,1.40
2023-09-20T02:36:09.324Z,2.08
2023-09-20T02:38:39.666Z,1.60
2023-09-20T02:41:07.750Z,1.70
2023-09-20T02:43:35.677Z,1.70
2023-09-20T02:46:07.820Z,1.20
2023-09-20T02:48:37.074Z,1.40
2023-09-20T02:51:05.376Z,1.70
2023-09-20T02:53:35.900Z,1.80
2023-09-20T02:56:06.929Z,1.87
2023-09-20T02:58:34.980Z,1.30
2023-09-20T03:01:04.680Z,1.50
2023-09-20T03:03:33.115Z,1.50
2023-09-20T03:06:10.420Z,1.80
2023-09-20T03:08:44.367Z,1.42
2023-09-20T03:11:21.583Z,1.33
2023-09-20T03:13:49.746Z,1.30
2023-09-20T03:16:21.220Z,1.42
2023-09-20T03:18:52.412Z,1.73
2023-09-20T03:21:21.771Z,2.03
2023-09-20T03:23:49.712Z,1.45
2023-09-20T03:26:18.608Z,1.70
2023-09-20T03:28:48.965Z,1.65
2023-09-20T03:31:21.373Z,1.67
2023-09-20T03:33:50.588Z,1.40
2023-09-20T03:36:18.641Z,1.52
2023-09-20T03:38:46.843Z,1.55
2023-09-20T03:41:14.990Z,1.30
2023-09-20T03:43:43.313Z,1.90
2023-09-20T03:46:12.278Z,1.65
2023-09-20T03:48:40.431Z,1.70
2023-09-20T03:51:20.460Z,2.20
2023-09-20T03:53:51.932Z,2.10
2023-09-20T03:56:20.207Z,1.87
2023-09-20T03:58:48.112Z,1.60
2023-09-20T04:01:16.443Z,1.73
2023-09-20T04:03:44.640Z,1.70
2023-09-20T04:06:12.888Z,2.20
2023-09-20T04:08:41.660Z,1.98
2023-09-20T04:11:09.806Z,2.12
2023-09-20T04:13:37.799Z,1.70
2023-09-20T04:16:05.948Z,1.87
2023-09-20T04:18:34.538Z,2.00
2023-09-20T04:21:02.793Z,1.60
2023-09-20T04:23:30.935Z,2.10
2023-09-20T04:26:00.292Z,2.22
2023-09-20T04:28:28.300Z,1.92
2023-09-20T04:30:56.267Z,2.15
2023-09-20T04:33:26.181Z,2.28
2023-09-20T04:35:54.733Z,2.28
2023-09-20T04:38:22.763Z,2.10
2023-09-20T04:40:50.692Z,2.05
2023-09-20T04:43:18.564Z,2.10
2023-09-20T04:45:46.588Z,1.98
2023-09-20T04:48:15.521Z,1.87
2023-09-20T04:50:43.532Z,2.00
2023-09-20T04:53:11.535Z,2.00
2023-09-20T04:55:39.732Z,2.17
2023-09-20T04:58:08.766Z,2.65
2023-09-20T05:00:39.629Z,2.22
2023-09-20T05:03:07.675Z,2.20
2023-09-20T05:05:35.946Z,2.25
2023-09-20T05:08:04.617Z,2.08
2023-09-20T05:10:33.340Z,2.35
2023-09-20T05:13:01.352Z,2.50
2023-09-20T05:15:29.377Z,2.10
2023-09-20T05:17:58.061Z,2.37
2023-09-20T05:20:27.014Z,1.70
2023-09-20T05:22:55.195Z,2.10
2023-09-20T05:25:27.311Z,2.25
2023-09-20T05:27:56.783Z,2.30
2023-09-20T05:30:24.817Z,2.22
2023-09-20T05:32:54.413Z,2.50
2023-09-20T05:35:22.511Z,3.70
2023-09-20T05:37:50.910Z,3.03
2023-09-20T05:40:21.666Z,3.90
2023-09-20T05:42:52.793Z,5.20
2023-09-20T05:45:25.781Z,4.43
2023-09-20T05:47:53.895Z,4.00
2023-09-20T05:50:25.834Z,4.68
2023-09-20T05:52:54.335Z,3.92
2023-09-20T05:55:25.356Z,4.50
2023-09-20T05:57:53.276Z,4.30
2023-09-20T06:00:24.542Z,3.80
2023-09-20T06:02:52.641Z,4.40
2023-09-20T06:05:26.780Z,4.57
2023-09-20T06:08:00.034Z,4.57
2023-09-20T06:10:28.188Z,4.53
2023-09-20T06:12:56.365Z,4.07
2023-09-20T06:15:25.118Z,4.43
2023-09-20T06:17:54.270Z,3.80
2023-09-20T06:20:22.290Z,4.40
2023-09-20T06:22:55.412Z,4.35
2023-09-20T06:25:24.633Z,4.03
2023-09-20T06:27:56.097Z,3.87
2023-09-20T06:30:25.137Z,3.97
2023-09-20T06:32:53.585Z,3.62
2023-09-20T06:35:23.179Z,3.85
2023-09-20T06:37:51.734Z,4.18
2023-09-20T06:40:36.459Z,5.57
2023-09-20T06:43:04.462Z,4.43
2023-09-20T06:45:32.371Z,4.97
2023-09-20T06:48:00.822Z,5.18
2023-09-20T06:50:29.207Z,4.55
2023-09-20T06:52:57.208Z,3.80
2023-09-20T06:55:27.686Z,5.15
2023-09-20T06:58:08.905Z,4.43
2023-09-20T07:00:44.283Z,4.30
2023-09-20T07:03:13.021Z,4.43
2023-09-20T07:05:41.123Z,4.10
2023-09-20T07:08:10.752Z,3.90
2023-09-20T07:10:44.216Z,4.10
2023-09-20T07:13:12.444Z,4.10
2023-09-20T07:15:41.614Z,4.10
2023-09-20T07:18:14.542Z,4.40
2023-09-20T07:20:45.324Z,3.72
2023-09-20T07:23:17.912Z,3.95
2023-09-20T07:25:45.983Z,3.35
2023-09-20T07:28:13.949Z,3.45
2023-09-20T07:30:47.127Z,3.10
2023-09-20T07:33:26.557Z,3.83
2023-09-20T07:36:43.144Z,3.70
2023-09-20T07:39:24.276Z,3.78
2023-09-20T07:41:55.534Z,3.55
2023-09-20T07:44:26.597Z,4.30
2023-09-20T07:46:59.735Z,3.47
2023-09-20T07:49:28.098Z,3.37
2023-09-20T07:51:57.234Z,3.53
2023-09-20T07:54:25.265Z,3.58
2023-09-20T07:56:55.070Z,3.47
2023-09-20T07:59:26.250Z,3.50
2023-09-20T08:01:55.524Z,3.17
2023-09-20T08:04:24.444Z,3.05
2023-09-20T08:06:52.526Z,3.53
2023-09-20T08:09:20.514Z,3.80
2023-09-20T08:11:49.393Z,3.87
2023-09-20T08:14:17.673Z,3.22
2023-09-20T08:17:01.428Z,3.05
2023-09-20T08:19:33.573Z,2.75
2023-09-20T08:22:01.778Z,3.05
2023-09-20T08:24:49.596Z,2.87
2023-09-20T08:27:35.956Z,3.42
2023-09-20T08:30:22.482Z,2.87
2023-09-20T08:33:09.095Z,3.03
2023-09-20T08:35:55.629Z,2.95
2023-09-20T08:38:42.718Z,3.03
2023-09-20T08:41:29.965Z,3.45
2023-09-20T08:44:17.065Z,3.00
2023-09-20T08:47:05.575Z,2.97
2023-09-20T08:49:52.581Z,2.40
2023-09-20T08:52:41.609Z,2.92
2023-09-20T08:55:30.092Z,3.47
2023-09-20T08:58:18.179Z,2.50
2023-09-20T09:00:49.080Z,2.22
2023-09-20T09:03:18.318Z,2.35
2023-09-20T09:05:46.348Z,2.03
2023-09-20T09:08:16.033Z,2.22
2023-09-20T09:10:44.002Z,2.25
2023-09-20T09:13:11.954Z,2.35
2023-09-20T09:15:40.120Z,2.30
2023-09-20T09:18:16.884Z,2.55
2023-09-20T09:20:50.165Z,2.10
2023-09-20T09:23:34.131Z,1.80
2023-09-20T09:26:02.086Z,2.80
2023-09-20T09:28:32.292Z,2.40
2023-09-20T09:31:00.433Z,2.00
2023-09-20T09:33:29.595Z,2.00
2023-09-20T09:35:57.664Z,1.90
2023-09-20T09:38:25.930Z,1.90
2023-09-20T09:41:04.178Z,1.92
2023-09-20T09:43:32.450Z,1.85
2023-09-20T09:46:11.714Z,1.48
2023-09-20T09:48:40.180Z,1.50
2023-09-20T09:51:09.161Z,1.33
2023-09-20T09:53:41.753Z,1.12
2023-09-20T09:56:09.723Z,1.27
2023-09-20T09:58:37.839Z,1.10
2023-09-20T10:01:08.889Z,1.02
2023-09-20T10:03:39.255Z,0.90
2023-09-20T10:06:18.212Z,0.90
2023-09-20T10:08:47.239Z,0.80
2023-09-20T10:11:16.496Z,0.95
2023-09-20T10:13:46.971Z,1.15
2023-09-20T10:16:15.332Z,0.95
2023-09-20T10:19:00.130Z,1.10
2023-09-20T10:21:34.252Z,0.90
2023-09-20T10:24:10.298Z,1.10
2023-09-20T10:26:42.581Z,1.00
2023-09-20T10:29:28.521Z,1.20
2023-09-20T10:32:17.040Z,1.00
2023-09-20T10:35:25.300Z,0.95
2023-09-20T10:38:10.466Z,0.90
2023-09-20T10:40:51.641Z,0.90
2023-09-20T10:43:27.768Z,0.82
2023-09-20T10:45:56.966Z,1.00
2023-09-20T10:48:30.356Z,1.05
2023-09-20T10:51:01.961Z,0.88
2023-09-20T10:53:49.688Z,0.93
2023-09-20T10:56:55.001Z,1.10
2023-09-20T10:59:24.546Z,0.90
2023-09-20T11:01:58.926Z,1.00
2023-09-20T11:04:27.598Z,0.90
2023-09-20T11:06:57.588Z,1.00
2023-09-20T11:09:27.196Z,0.88
2023-09-20T11:11:55.693Z,0.90
2023-09-20T11:14:26.508Z,0.80
2023-09-20T11:16:54.514Z,1.00
2023-09-20T11:19:22.497Z,0.90
2023-09-20T11:21:51.832Z,0.85
2023-09-20T11:24:22.034Z,0.90
2023-09-20T11:26:50.116Z,0.82
2023-09-20T11:29:19.301Z,0.70
2023-09-20T11:31:47.676Z,1.08
2023-09-20T11:34:15.676Z,0.90
2023-09-20T11:36:45.591Z,1.08
2023-09-20T11:39:25.400Z,0.90
2023-09-20T11:41:53.330Z,0.80
2023-09-20T11:44:23.073Z,0.93
2023-09-20T11:46:58.935Z,0.77
2023-09-20T11:49:30.413Z,0.90
2023-09-20T11:52:01.534Z,1.00
2023-09-20T11:54:37.675Z,1.00
2023-09-20T11:57:06.173Z,1.23
2023-09-20T11:59:43.871Z,1.10
2023-09-20T12:02:14.717Z,1.05
2023-09-20T12:04:42.771Z,0.93
2023-09-20T12:07:11.017Z,1.10
2023-09-20T12:09:39.612Z,0.82
2023-09-20T12:12:08.032Z,1.12
2023-09-20T12:14:37.406Z,1.10
2023-09-20T12:17:06.668Z,1.15
2023-09-20T12:19:35.238Z,1.20
2023-09-20T12:22:06.069Z,0.90
2023-09-20T12:24:34.035Z,1.20
2023-09-20T12:27:02.096Z,1.23
2023-09-20T12:29:30.473Z,1.02
2023-09-20T12:31:58.777Z,0.90
2023-09-20T12:34:27.528Z,1.00
2023-09-20T12:36:56.036Z,1.00
2023-09-20T12:39:24.150Z,1.10
2023-09-20T12:41:52.163Z,1.00
2023-09-20T12:44:20.246Z,0.80
2023-09-20T12:46:49.836Z,0.90
2023-09-20T12:49:17.857Z,0.82
2023-09-20T12:51:45.974Z,1.10
2023-09-20T12:54:13.953Z,0.98
2023-09-20T12:56:43.467Z,1.10
2023-09-20T12:59:15.807Z,1.15
2023-09-20T13:01:43.813Z,0.90
2023-09-20T13:04:13.041Z,0.90
2023-09-20T13:06:41.168Z,1.00
2023-09-20T13:09:09.211Z,0.75
2023-09-20T13:11:37.156Z,0.90
2023-09-20T13:14:05.249Z,0.85
2023-09-20T13:16:33.206Z,1.08
2023-09-20T13:19:01.544Z,0.85
2023-09-20T13:21:29.408Z,0.75
2023-09-20T13:24:01.666Z,0.73
2023-09-20T13:26:30.214Z,1.10
2023-09-20T13:28:58.344Z,0.88
2023-09-20T13:31:26.268Z,1.08
2023-09-20T13:33:54.329Z,1.00
2023-09-20T13:36:23.418Z,1.08
2023-09-20T13:38:52.061Z,1.00
2023-09-20T13:41:20.509Z,1.00
2023-09-20T13:43:48.450Z,1.00
2023-09-20T13:46:17.047Z,0.80
2023-09-20T13:48:46.340Z,0.90
2023-09-20T13:51:19.122Z,1.05
2023-09-20T13:53:48.250Z,1.00
2023-09-20T13:56:16.256Z,0.80
2023-09-20T13:58:45.082Z,1.10
2023-09-20T14:01:13.150Z,0.80
2023-09-20T14:03:41.542Z,1.02
2023-09-20T14:06:10.179Z,1.00
2023-09-20T14:08:38.253Z,1.00
2023-09-20T14:11:09.235Z,1.00
2023-09-20T14:13:37.278Z,0.75
2023-09-20T14:16:05.280Z,1.20
2023-09-20T14:18:33.290Z,0.80
2023-09-20T14:21:04.625Z,0.77
2023-09-20T14:23:32.827Z,0.93
2023-09-20T14:26:00.813Z,1.23
2023-09-20T14:28:28.799Z,1.15
2023-09-20T14:30:56.782Z,1.08
2023-09-20T14:33:24.796Z,1.00
2023-09-20T14:35:58.686Z,0.90
2023-09-20T14:38:28.275Z,1.00
2023-09-20T14:40:57.089Z,0.80
2023-09-20T14:43:25.117Z,0.90
2023-09-20T14:45:53.094Z,0.73
2023-09-20T14:48:21.089Z,0.70
2023-09-20T14:50:49.167Z,0.95
2023-09-20T14:53:20.818Z,1.10
2023-09-20T14:55:49.671Z,0.80
2023-09-20T14:58:20.459Z,1.00
2023-09-20T15:00:51.849Z,0.85
2023-09-20T15:03:19.948Z,0.80
2023-09-20T15:05:48.048Z,0.88
2023-09-20T15:08:16.043Z,1.02
2023-09-20T15:10:45.674Z,1.12
2023-09-20T15:13:13.733Z,1.30
2023-09-20T15:15:44.509Z,1.00
2023-09-20T15:18:12.564Z,0.90
2023-09-20T15:20:45.176Z,1.00
2023-09-20T15:23:13.201Z,0.90
2023-09-20T15:25:42.200Z,1.08
2023-09-20T15:28:10.781Z,1.05
2023-09-20T15:30:42.464Z,0.93
2023-09-20T15:33:11.588Z,0.70
2023-09-20T15:35:39.639Z,0.80
2023-09-20T15:38:10.393Z,0.98
2023-09-20T15:40:38.421Z,0.85
2023-09-20T15:43:08.840Z,1.20
2023-09-20T15:45:36.890Z,0.80
2023-09-20T15:48:05.164Z,0.90
2023-09-20T15:50:36.230Z,1.15
2023-09-20T15:53:04.569Z,1.10
2023-09-20T15:55:32.629Z,0.80
2023-09-20T15:58:00.813Z,1.00
2023-09-20T16:00:28.760Z,1.10
2023-09-20T16:02:57.487Z,0.80
2023-09-20T16:05:25.565Z,1.12
2023-09-20T16:07:53.619Z,0.73
2023-09-20T16:10:22.224Z,1.02
2023-09-20T16:12:50.300Z,1.10
2023-09-20T16:15:19.095Z,0.90
2023-09-20T16:17:48.148Z,0.88
2023-09-20T16:20:19.486Z,0.93
2023-09-20T16:22:48.877Z,1.10
2023-09-20T16:25:17.007Z,1.10
2023-09-20T16:27:47.074Z,0.82
2023-09-20T16:30:16.916Z,1.33
2023-09-20T16:32:46.316Z,1.00
2023-09-20T16:35:16.529Z,1.27
2023-09-20T16:37:45.597Z,0.88
2023-09-20T16:40:14.844Z,1.12
2023-09-20T16:42:46.126Z,1.10
2023-09-20T16:45:15.620Z,0.90
2023-09-20T16:47:44.885Z,0.80
2023-09-20T16:50:13.652Z,0.90
2023-09-20T16:52:42.393Z,0.80
2023-09-20T16:55:12.188Z,0.90
2023-09-20T16:57:40.911Z,0.80
2023-09-20T17:00:13.765Z,1.10
2023-09-20T17:02:42.205Z,0.88
2023-09-20T17:05:11.304Z,0.90
2023-09-20T17:07:39.390Z,0.82
2023-09-20T17:10:08.265Z,0.75
2023-09-20T17:12:36.637Z,0.90
2023-09-20T17:15:06.003Z,0.80
2023-09-20T17:17:34.169Z,1.00
2023-09-20T17:20:03.949Z,1.45
2023-09-20T17:22:32.996Z,0.90
2023-09-20T17:25:01.096Z,1.35
2023-09-20T17:27:31.049Z,1.02
2023-09-20T17:29:59.717Z,1.00
2023-09-20T17:32:27.864Z,1.00
2023-09-20T17:35:01.827Z,1.23
2023-09-20T17:37:30.513Z,1.30
2023-09-20T17:39:58.475Z,1.40
2023-09-20T17:42:27.747Z,1.60
2023-09-20T17:44:58.627Z,1.35
2023-09-20T17:47:26.670Z,1.67
2023-09-20T17:49:55.097Z,1.37
2023-09-20T17:52:30.247Z,1.70
2023-09-20T17:54:59.625Z,1.75
2023-09-20T17:57:28.095Z,1.58
2023-09-20T17:59:56.095Z,1.48
2023-09-20T18:02:26.674Z,1.73
2023-09-20T18:04:54.893Z,1.30
2023-09-20T18:07:25.432Z,2.60
2023-09-20T18:09:53.506Z,2.20
2023-09-20T18:12:21.427Z,2.90
2023-09-20T18:14:51.185Z,3.62
2023-09-20T18:17:25.013Z,3.35
2023-09-20T18:19:58.650Z,2.90
2023-09-20T18:22:26.704Z,2.00
2023-09-20T18:24:56.544Z,1.70
2023-09-20T18:27:24.747Z,1.87
2023-09-20T18:29:54.778Z,2.15
2023-09-20T18:32:23.406Z,2.17
2023-09-20T18:34:51.865Z,2.10
2023-09-20T18:37:20.526Z,2.12
2023-09-20T18:39:48.504Z,1.85
2023-09-20T18:42:17.132Z,1.85
2023-09-20T18:44:47.858Z,2.25
2023-09-20T18:47:16.055Z,2.22
2023-09-20T18:49:47.406Z,1.98
2023-09-20T18:52:16.663Z,2.10
2023-09-20T18:54:47.536Z,1.87
2023-09-20T18:57:15.522Z,1.92
2023-09-20T18:59:46.317Z,2.15
2023-09-20T19:02:14.308Z,1.70
2023-09-20T19:04:43.606Z,2.00
2023-09-20T19:07:13.836Z,1.87
2023-09-20T19:09:42.005Z,1.80
2023-09-20T19:12:13.545Z,1.80
2023-09-20T19:14:43.165Z,1.90
2023-09-20T19:17:11.186Z,1.80
2023-09-20T19:19:40.826Z,1.80
2023-09-20T19:22:08.931Z,2.10
2023-09-20T19:24:39.728Z,2.00
2023-09-20T19:27:07.760Z,2.37
2023-09-20T19:29:37.076Z,1.90
2023-09-20T19:32:05.316Z,1.92
2023-09-20T19:34:35.602Z,2.22
2023-09-20T19:37:03.613Z,2.20
2023-09-20T19:39:31.593Z,2.37
2023-09-20T19:41:59.619Z,2.12
2023-09-20T19:44:33.225Z,2.45
2023-09-20T19:47:01.308Z,2.83
2023-09-20T19:49:31.772Z,2.50
2023-09-20T19:51:59.746Z,2.45
2023-09-20T19:54:27.897Z,2.47
2023-09-20T19:56:55.835Z,2.30
2023-09-20T19:59:23.929Z,2.45
2023-09-20T20:01:53.737Z,2.42
2023-09-20T20:04:21.864Z,2.75
2023-09-20T20:06:50.482Z,2.80
2023-09-20T20:09:18.597Z,2.58
2023-09-20T20:11:47.664Z,2.70
2023-09-20T20:14:15.663Z,2.55
2023-09-20T20:16:43.766Z,2.53
2023-09-20T20:19:12.155Z,2.33
2023-09-20T20:21:40.172Z,2.60
2023-09-20T20:24:09.883Z,2.20
2023-09-20T20:26:38.191Z,1.95
2023-09-20T20:29:15.461Z,1.92
2023-09-20T20:31:45.248Z,1.90
2023-09-20T20:34:13.237Z,2.10
2023-09-20T20:36:41.309Z,1.98
2023-09-20T20:39:18.452Z,2.10
2023-09-20T20:41:50.284Z,2.55
2023-09-20T20:44:18.631Z,2.58
2023-09-20T20:46:47.039Z,1.95
2023-09-20T20:49:16.430Z,2.28
2023-09-20T20:51:46.221Z,2.20
2023-09-20T20:54:14.279Z,2.28
2023-09-20T20:56:42.239Z,2.17
2023-09-20T20:59:17.242Z,2.00
2023-09-20T21:01:45.289Z,2.15
2023-09-20T21:04:13.285Z,2.35
2023-09-20T21:06:41.388Z,2.67
2023-09-20T21:09:09.432Z,2.10
2023-09-20T21:11:37.591Z,2.12
2023-09-20T21:14:10.779Z,2.40
2023-09-20T21:16:38.863Z,2.25
2023-09-20T21:19:06.918Z,2.28
2023-09-20T21:21:40.637Z,2.20
2023-09-20T21:24:11.633Z,1.90
2023-09-20T21:26:39.812Z,2.10
2023-09-20T21:29:09.073Z,1.90
2023-09-20T21:31:42.169Z,2.12
2023-09-20T21:34:10.621Z,2.75
2023-09-20T21:36:38.614Z,2.17
2023-09-20T21:39:06.920Z,2.40
2023-09-20T21:41:35.298Z,2.35
2023-09-20T21:44:03.285Z,2.17
2023-09-20T21:46:31.281Z,2.17
2023-09-20T21:48:59.335Z,2.03
2023-09-20T21:51:27.274Z,2.30
2023-09-20T21:53:55.228Z,2.08
2023-09-20T21:56:23.158Z,2.10
2023-09-20T21:58:51.074Z,2.03
2023-09-20T22:01:19.010Z,1.85
2023-09-20T22:03:47.073Z,2.00
2023-09-20T22:06:15.650Z,2.33
2023-09-20T22:08:44.267Z,2.03
2023-09-20T22:11:15.168Z,1.90
2023-09-20T22:13:43.687Z,1.98
2023-09-20T22:16:11.779Z,2.10
2023-09-20T22:18:41.698Z,2.50
2023-09-20T22:21:14.509Z,2.10
2023-09-20T22:23:42.704Z,1.80
2023-09-20T22:26:13.548Z,1.90
2023-09-20T22:28:41.922Z,2.00
2023-09-20T22:31:19.460Z,2.20
2023-09-20T22:33:47.719Z,2.22
2023-09-20T22:36:16.237Z,2.17
2023-09-20T22:38:46.555Z,2.22
2023-09-20T22:41:17.831Z,2.30
2023-09-20T22:43:47.467Z,2.08
2023-09-20T22:46:17.868Z,2.25
2023-09-20T22:48:46.420Z,2.10
2023-09-20T22:51:14.766Z,2.45
2023-09-20T22:53:45.967Z,2.17
2023-09-20T22:56:14.703Z,2.05
2023-09-20T22:58:43.515Z,2.15
2023-09-20T23:01:12.048Z,2.58
2023-09-20T23:03:41.229Z,2.10
2023-09-20T23:06:09.342Z,2.12
2023-09-20T23:08:38.037Z,2.15
2023-09-20T23:11:11.768Z,1.95
2023-09-20T23:13:41.418Z,2.45
2023-09-20T23:16:18.107Z,2.30
2023-09-20T23:18:47.960Z,2.15
2023-09-20T23:21:18.638Z,2.72
2023-09-20T23:23:50.143Z,2.17
2023-09-20T23:26:18.854Z,2.55
2023-09-20T23:28:46.943Z,2.10
2023-09-20T23:31:18.297Z,2.08
2023-09-20T23:33:48.545Z,2.35
2023-09-20T23:36:17.567Z,2.58
2023-09-20T23:38:46.420Z,2.22
2023-09-20T23:41:17.225Z,2.08
2023-09-20T23:43:49.554Z,2.50
2023-09-20T23:46:23.183Z,2.10
2023-09-20T23:48:52.743Z,2.08
2023-09-20T23:51:21.746Z,1.98
2023-09-20T23:53:51.027Z,2.25
2023-09-20T23:56:19.709Z,2.35
2023-09-20T23:58:47.960Z,2.28
